sensor_id;sensor_type;location;lat;lon;timestamp;P1;durP1;ratioP1;P2;durP2;ratioP2
37047;SDS011;23227;48.780;9.210;2023-04-03T00:00:00;5.47;;;1.63;;
37047;SDS011;23227;48.780;9.210;2023-04-03T00:03:04;3.63;;;2.03;;
37047;SDS011;23227;48.780;9.210;2023-04-03T00:06:08;4.33;;;2.00;;
37047;SDS011;23227;48.780;9.210;2023-04-03T00:09:12;3.13;;;1.90;;
37047;SDS011;23227;48.780;9.210;2023-04-03T00:12:14;2.53;;;1.87;;
37047;SDS011;23227;48.780;9.210;2023-04-03T00:15:17;4.73;;;2.43;;
37047;SDS011;23227;48.780;9.210;2023-04-03T00:18:20;6.63;;;1.80;;
37047;SDS011;23227;48.780;9.210;2023-04-03T00:21:24;2.80;;;2.00;;
37047;SDS011;23227;48.780;9.210;2023-04-03T00:24:27;3.53;;;1.73;;
37047;SDS011;23227;48.780;9.210;2023-04-03T00:27:29;2.43;;;1.73;;
37047;SDS011;23227;48.780;9.210;2023-04-03T00:30:32;4.10;;;1.97;;
37047;SDS011;23227;48.780;9.210;2023-04-03T00:33:38;4.07;;;2.00;;
37047;SDS011;23227;48.780;9.210;2023-04-03T00:36:42;4.43;;;1.93;;
37047;SDS011;23227;48.780;9.210;2023-04-03T00:39:44;6.10;;;2.07;;
37047;SDS011;23227;48.780;9.210;2023-04-03T00:42:47;4.13;;;2.00;;
37047;SDS011;23227;48.780;9.210;2023-04-03T00:45:52;2.67;;;2.00;;
37047;SDS011;23227;48.780;9.210;2023-04-03T00:48:55;4.82;;;2.10;;
37047;SDS011;23227;48.780;9.210;2023-04-03T00:51:59;5.33;;;2.40;;
37047;SDS011;23227;48.780;9.210;2023-04-03T00:55:02;3.63;;;1.93;;
37047;SDS011;23227;48.780;9.210;2023-04-03T00:58:07;3.20;;;2.03;;
37047;SDS011;23227;48.780;9.210;2023-04-03T01:01:12;3.75;;;2.60;;
37047;SDS011;23227;48.780;9.210;2023-04-03T01:04:26;4.33;;;2.10;;
37047;SDS011;23227;48.780;9.210;2023-04-03T01:07:31;2.33;;;1.77;;
37047;SDS011;23227;48.780;9.210;2023-04-03T01:10:35;3.97;;;2.00;;
37047;SDS011;23227;48.780;9.210;2023-04-03T01:13:38;3.42;;;2.13;;
37047;SDS011;23227;48.780;9.210;2023-04-03T01:16:41;3.60;;;2.20;;
37047;SDS011;23227;48.780;9.210;2023-04-03T01:19:44;3.07;;;1.80;;
37047;SDS011;23227;48.780;9.210;2023-04-03T01:22:52;3.83;;;1.97;;
37047;SDS011;23227;48.780;9.210;2023-04-03T01:25:59;4.50;;;2.43;;
37047;SDS011;23227;48.780;9.210;2023-04-03T01:29:02;5.90;;;2.23;;
37047;SDS011;23227;48.780;9.210;2023-04-03T01:32:06;3.58;;;2.22;;
37047;SDS011;23227;48.780;9.210;2023-04-03T01:35:09;2.90;;;1.50;;
37047;SDS011;23227;48.780;9.210;2023-04-03T01:38:12;3.17;;;2.10;;
37047;SDS011;23227;48.780;9.210;2023-04-03T01:41:16;2.08;;;1.88;;
37047;SDS011;23227;48.780;9.210;2023-04-03T01:44:19;9.38;;;2.38;;
37047;SDS011;23227;48.780;9.210;2023-04-03T01:47:22;2.47;;;1.90;;
37047;SDS011;23227;48.780;9.210;2023-04-03T01:50:25;8.63;;;2.60;;
37047;SDS011;23227;48.780;9.210;2023-04-03T01:53:28;2.97;;;2.07;;
37047;SDS011;23227;48.780;9.210;2023-04-03T01:56:30;2.63;;;2.10;;
37047;SDS011;23227;48.780;9.210;2023-04-03T01:59:33;4.40;;;2.43;;
37047;SDS011;23227;48.780;9.210;2023-04-03T02:02:37;3.87;;;2.03;;
37047;SDS011;23227;48.780;9.210;2023-04-03T02:08:42;4.33;;;2.30;;
37047;SDS011;23227;48.780;9.210;2023-04-03T02:11:44;3.03;;;2.03;;
37047;SDS011;23227;48.780;9.210;2023-04-03T02:14:47;4.37;;;2.07;;
37047;SDS011;23227;48.780;9.210;2023-04-03T02:17:51;2.70;;;1.80;;
37047;SDS011;23227;48.780;9.210;2023-04-03T02:23:56;2.20;;;1.80;;
37047;SDS011;23227;48.780;9.210;2023-04-03T02:26:59;4.40;;;2.00;;
37047;SDS011;23227;48.780;9.210;2023-04-03T02:30:01;4.23;;;1.97;;
37047;SDS011;23227;48.780;9.210;2023-04-03T02:33:06;2.70;;;2.25;;
37047;SDS011;23227;48.780;9.210;2023-04-03T02:36:08;3.20;;;1.80;;
37047;SDS011;23227;48.780;9.210;2023-04-03T02:39:11;5.17;;;2.40;;
37047;SDS011;23227;48.780;9.210;2023-04-03T02:42:39;3.57;;;1.90;;
37047;SDS011;23227;48.780;9.210;2023-04-03T02:45:41;3.37;;;2.00;;
37047;SDS011;23227;48.780;9.210;2023-04-03T02:48:45;5.53;;;2.60;;
37047;SDS011;23227;48.780;9.210;2023-04-03T02:54:52;4.05;;;1.98;;
37047;SDS011;23227;48.780;9.210;2023-04-03T02:57:54;4.60;;;2.20;;
37047;SDS011;23227;48.780;9.210;2023-04-03T03:00:57;3.00;;;1.93;;
37047;SDS011;23227;48.780;9.210;2023-04-03T03:04:01;3.13;;;2.30;;
37047;SDS011;23227;48.780;9.210;2023-04-03T03:07:03;4.80;;;1.87;;
37047;SDS011;23227;48.780;9.210;2023-04-03T03:10:06;3.57;;;2.33;;
37047;SDS011;23227;48.780;9.210;2023-04-03T03:13:10;3.60;;;2.13;;
37047;SDS011;23227;48.780;9.210;2023-04-03T03:16:13;3.40;;;2.10;;
37047;SDS011;23227;48.780;9.210;2023-04-03T03:19:17;4.13;;;2.13;;
37047;SDS011;23227;48.780;9.210;2023-04-03T03:25:22;3.57;;;2.43;;
37047;SDS011;23227;48.780;9.210;2023-04-03T03:28:24;3.93;;;2.10;;
37047;SDS011;23227;48.780;9.210;2023-04-03T03:31:27;2.30;;;1.63;;
37047;SDS011;23227;48.780;9.210;2023-04-03T03:34:31;2.03;;;1.53;;
37047;SDS011;23227;48.780;9.210;2023-04-03T03:40:36;3.37;;;1.80;;
37047;SDS011;23227;48.780;9.210;2023-04-03T03:43:38;2.27;;;1.80;;
37047;SDS011;23227;48.780;9.210;2023-04-03T03:46:41;5.90;;;2.00;;
37047;SDS011;23227;48.780;9.210;2023-04-03T03:49:45;12.57;;;2.20;;
37047;SDS011;23227;48.780;9.210;2023-04-03T03:52:47;3.93;;;2.10;;
37047;SDS011;23227;48.780;9.210;2023-04-03T03:55:50;2.17;;;1.60;;
37047;SDS011;23227;48.780;9.210;2023-04-03T03:58:53;2.93;;;1.83;;
37047;SDS011;23227;48.780;9.210;2023-04-03T04:01:57;2.67;;;1.90;;
37047;SDS011;23227;48.780;9.210;2023-04-03T04:05:01;3.30;;;1.87;;
37047;SDS011;23227;48.780;9.210;2023-04-03T04:08:03;4.43;;;2.87;;
37047;SDS011;23227;48.780;9.210;2023-04-03T04:11:06;5.05;;;1.60;;
37047;SDS011;23227;48.780;9.210;2023-04-03T04:14:12;3.47;;;1.63;;
37047;SDS011;23227;48.780;9.210;2023-04-03T04:17:14;3.27;;;1.80;;
37047;SDS011;23227;48.780;9.210;2023-04-03T04:20:18;2.80;;;1.90;;
37047;SDS011;23227;48.780;9.210;2023-04-03T04:23:21;2.67;;;1.80;;
37047;SDS011;23227;48.780;9.210;2023-04-03T04:26:24;6.17;;;1.50;;
37047;SDS011;23227;48.780;9.210;2023-04-03T04:29:27;3.72;;;1.77;;
37047;SDS011;23227;48.780;9.210;2023-04-03T04:32:29;7.00;;;1.80;;
37047;SDS011;23227;48.780;9.210;2023-04-03T04:35:34;2.93;;;1.73;;
37047;SDS011;23227;48.780;9.210;2023-04-03T04:38:37;3.47;;;1.70;;
37047;SDS011;23227;48.780;9.210;2023-04-03T04:41:39;4.73;;;1.57;;
37047;SDS011;23227;48.780;9.210;2023-04-03T04:44:42;2.87;;;1.87;;
37047;SDS011;23227;48.780;9.210;2023-04-03T04:47:44;5.03;;;1.80;;
37047;SDS011;23227;48.780;9.210;2023-04-03T04:50:48;2.37;;;1.93;;
37047;SDS011;23227;48.780;9.210;2023-04-03T04:56:56;2.50;;;1.60;;
37047;SDS011;23227;48.780;9.210;2023-04-03T04:59:59;2.20;;;1.53;;
37047;SDS011;23227;48.780;9.210;2023-04-03T05:03:01;4.80;;;1.93;;
37047;SDS011;23227;48.780;9.210;2023-04-03T05:06:06;1.90;;;1.67;;
37047;SDS011;23227;48.780;9.210;2023-04-03T05:09:09;4.03;;;1.70;;
37047;SDS011;23227;48.780;9.210;2023-04-03T05:12:12;4.75;;;1.85;;
37047;SDS011;23227;48.780;9.210;2023-04-03T05:15:14;4.07;;;1.80;;
37047;SDS011;23227;48.780;9.210;2023-04-03T05:18:17;4.87;;;2.00;;
37047;SDS011;23227;48.780;9.210;2023-04-03T05:21:21;4.97;;;2.03;;
37047;SDS011;23227;48.780;9.210;2023-04-03T05:24:24;2.90;;;1.80;;
37047;SDS011;23227;48.780;9.210;2023-04-03T05:27:27;3.80;;;1.97;;
37047;SDS011;23227;48.780;9.210;2023-04-03T05:30:30;2.60;;;1.63;;
37047;SDS011;23227;48.780;9.210;2023-04-03T05:33:32;5.10;;;1.50;;
37047;SDS011;23227;48.780;9.210;2023-04-03T05:36:37;3.20;;;1.60;;
37047;SDS011;23227;48.780;9.210;2023-04-03T05:39:39;3.17;;;1.83;;
37047;SDS011;23227;48.780;9.210;2023-04-03T05:42:42;3.23;;;2.20;;
37047;SDS011;23227;48.780;9.210;2023-04-03T05:45:46;3.05;;;2.13;;
37047;SDS011;23227;48.780;9.210;2023-04-03T05:48:49;5.77;;;2.23;;
37047;SDS011;23227;48.780;9.210;2023-04-03T05:51:53;2.63;;;1.90;;
37047;SDS011;23227;48.780;9.210;2023-04-03T05:54:56;5.23;;;1.87;;
37047;SDS011;23227;48.780;9.210;2023-04-03T05:57:59;3.73;;;1.70;;
37047;SDS011;23227;48.780;9.210;2023-04-03T06:01:02;5.05;;;2.47;;
37047;SDS011;23227;48.780;9.210;2023-04-03T06:04:05;1.85;;;1.67;;
37047;SDS011;23227;48.780;9.210;2023-04-03T06:07:12;5.77;;;2.93;;
37047;SDS011;23227;48.780;9.210;2023-04-03T06:10:16;2.73;;;1.87;;
37047;SDS011;23227;48.780;9.210;2023-04-03T06:13:21;4.10;;;2.20;;
37047;SDS011;23227;48.780;9.210;2023-04-03T06:16:24;3.55;;;1.80;;
37047;SDS011;23227;48.780;9.210;2023-04-03T06:19:27;2.83;;;1.73;;
37047;SDS011;23227;48.780;9.210;2023-04-03T06:22:31;5.70;;;1.60;;
37047;SDS011;23227;48.780;9.210;2023-04-03T06:28:36;4.33;;;1.73;;
37047;SDS011;23227;48.780;9.210;2023-04-03T06:31:39;2.17;;;1.60;;
37047;SDS011;23227;48.780;9.210;2023-04-03T06:34:42;3.33;;;1.70;;
37047;SDS011;23227;48.780;9.210;2023-04-03T06:37:46;2.43;;;2.03;;
37047;SDS011;23227;48.780;9.210;2023-04-03T06:40:48;3.27;;;1.73;;
37047;SDS011;23227;48.780;9.210;2023-04-03T06:43:52;2.37;;;2.00;;
37047;SDS011;23227;48.780;9.210;2023-04-03T06:46:57;4.40;;;1.73;;
37047;SDS011;23227;48.780;9.210;2023-04-03T06:50:00;3.17;;;1.80;;
37047;SDS011;23227;48.780;9.210;2023-04-03T06:53:04;3.93;;;1.70;;
37047;SDS011;23227;48.780;9.210;2023-04-03T06:56:07;5.63;;;1.90;;
37047;SDS011;23227;48.780;9.210;2023-04-03T06:59:11;4.38;;;2.28;;
37047;SDS011;23227;48.780;9.210;2023-04-03T07:02:15;7.27;;;1.67;;
37047;SDS011;23227;48.780;9.210;2023-04-03T07:05:17;10.27;;;1.80;;
37047;SDS011;23227;48.780;9.210;2023-04-03T07:08:21;2.33;;;1.40;;
37047;SDS011;23227;48.780;9.210;2023-04-03T07:11:25;4.80;;;2.00;;
37047;SDS011;23227;48.780;9.210;2023-04-03T07:14:28;3.17;;;1.88;;
37047;SDS011;23227;48.780;9.210;2023-04-03T07:17:31;3.80;;;2.13;;
37047;SDS011;23227;48.780;9.210;2023-04-03T07:20:34;3.13;;;1.90;;
37047;SDS011;23227;48.780;9.210;2023-04-03T07:23:38;4.93;;;2.88;;
37047;SDS011;23227;48.780;9.210;2023-04-03T07:26:41;5.17;;;1.73;;
37047;SDS011;23227;48.780;9.210;2023-04-03T07:29:44;3.43;;;2.00;;
37047;SDS011;23227;48.780;9.210;2023-04-03T07:32:47;6.18;;;1.90;;
37047;SDS011;23227;48.780;9.210;2023-04-03T07:35:49;4.20;;;2.27;;
37047;SDS011;23227;48.780;9.210;2023-04-03T07:38:54;4.07;;;1.83;;
37047;SDS011;23227;48.780;9.210;2023-04-03T07:41:57;2.83;;;2.10;;
37047;SDS011;23227;48.780;9.210;2023-04-03T07:45:00;6.78;;;2.28;;
37047;SDS011;23227;48.780;9.210;2023-04-03T07:48:03;3.87;;;2.03;;
37047;SDS011;23227;48.780;9.210;2023-04-03T07:51:06;2.22;;;1.65;;
37047;SDS011;23227;48.780;9.210;2023-04-03T07:54:10;6.70;;;1.90;;
37047;SDS011;23227;48.780;9.210;2023-04-03T07:57:13;5.77;;;1.67;;
37047;SDS011;23227;48.780;9.210;2023-04-03T08:00:16;2.90;;;1.73;;
37047;SDS011;23227;48.780;9.210;2023-04-03T08:03:20;5.53;;;2.23;;
37047;SDS011;23227;48.780;9.210;2023-04-03T08:06:23;2.00;;;1.40;;
37047;SDS011;23227;48.780;9.210;2023-04-03T08:09:46;4.93;;;1.80;;
37047;SDS011;23227;48.780;9.210;2023-04-03T08:12:49;2.77;;;1.70;;
37047;SDS011;23227;48.780;9.210;2023-04-03T08:15:52;4.93;;;1.80;;
37047;SDS011;23227;48.780;9.210;2023-04-03T08:18:55;4.47;;;1.60;;
37047;SDS011;23227;48.780;9.210;2023-04-03T08:21:58;3.43;;;2.10;;
37047;SDS011;23227;48.780;9.210;2023-04-03T08:25:03;4.33;;;1.80;;
37047;SDS011;23227;48.780;9.210;2023-04-03T08:28:06;5.60;;;1.83;;
37047;SDS011;23227;48.780;9.210;2023-04-03T08:31:10;7.80;;;2.05;;
37047;SDS011;23227;48.780;9.210;2023-04-03T08:34:17;5.33;;;1.80;;
37047;SDS011;23227;48.780;9.210;2023-04-03T08:37:20;4.60;;;1.70;;
37047;SDS011;23227;48.780;9.210;2023-04-03T08:40:24;4.10;;;1.80;;
37047;SDS011;23227;48.780;9.210;2023-04-03T08:43:29;2.87;;;1.53;;
37047;SDS011;23227;48.780;9.210;2023-04-03T08:46:38;3.07;;;1.90;;
37047;SDS011;23227;48.780;9.210;2023-04-03T08:49:46;3.23;;;1.87;;
37047;SDS011;23227;48.780;9.210;2023-04-03T08:52:52;8.00;;;1.97;;
37047;SDS011;23227;48.780;9.210;2023-04-03T08:55:59;5.83;;;2.00;;
37047;SDS011;23227;48.780;9.210;2023-04-03T08:59:06;3.13;;;1.63;;
37047;SDS011;23227;48.780;9.210;2023-04-03T09:02:18;2.90;;;1.57;;
37047;SDS011;23227;48.780;9.210;2023-04-03T09:05:29;5.10;;;1.70;;
37047;SDS011;23227;48.780;9.210;2023-04-03T09:08:40;4.73;;;1.70;;
37047;SDS011;23227;48.780;9.210;2023-04-03T09:11:50;5.70;;;1.83;;
37047;SDS011;23227;48.780;9.210;2023-04-03T09:15:01;4.32;;;1.60;;
37047;SDS011;23227;48.780;9.210;2023-04-03T09:18:10;2.93;;;1.60;;
37047;SDS011;23227;48.780;9.210;2023-04-03T09:21:17;3.33;;;1.63;;
37047;SDS011;23227;48.780;9.210;2023-04-03T09:24:23;3.73;;;2.00;;
37047;SDS011;23227;48.780;9.210;2023-04-03T09:27:27;2.70;;;1.25;;
37047;SDS011;23227;48.780;9.210;2023-04-03T09:30:30;3.27;;;1.53;;
37047;SDS011;23227;48.780;9.210;2023-04-03T09:33:33;2.77;;;1.40;;
37047;SDS011;23227;48.780;9.210;2023-04-03T09:39:48;3.20;;;1.30;;
37047;SDS011;23227;48.780;9.210;2023-04-03T09:42:54;5.40;;;1.60;;
37047;SDS011;23227;48.780;9.210;2023-04-03T09:46:20;2.00;;;1.50;;
37047;SDS011;23227;48.780;9.210;2023-04-03T09:49:29;6.40;;;1.53;;
37047;SDS011;23227;48.780;9.210;2023-04-03T09:52:32;9.13;;;1.90;;
37047;SDS011;23227;48.780;9.210;2023-04-03T09:55:41;2.08;;;1.30;;
37047;SDS011;23227;48.780;9.210;2023-04-03T09:58:46;4.70;;;1.60;;
37047;SDS011;23227;48.780;9.210;2023-04-03T10:01:58;4.33;;;1.70;;
37047;SDS011;23227;48.780;9.210;2023-04-03T10:05:01;3.70;;;1.40;;
37047;SDS011;23227;48.780;9.210;2023-04-03T10:08:09;6.33;;;1.80;;
37047;SDS011;23227;48.780;9.210;2023-04-03T10:11:15;3.40;;;1.60;;
37047;SDS011;23227;48.780;9.210;2023-04-03T10:14:19;2.20;;;1.30;;
37047;SDS011;23227;48.780;9.210;2023-04-03T10:17:23;8.30;;;1.60;;
37047;SDS011;23227;48.780;9.210;2023-04-03T10:20:36;4.70;;;1.67;;
37047;SDS011;23227;48.780;9.210;2023-04-03T10:23:41;3.77;;;1.60;;
37047;SDS011;23227;48.780;9.210;2023-04-03T10:26:49;4.90;;;1.30;;
37047;SDS011;23227;48.780;9.210;2023-04-03T10:29:59;5.23;;;1.70;;
37047;SDS011;23227;48.780;9.210;2023-04-03T10:33:09;3.40;;;1.43;;
37047;SDS011;23227;48.780;9.210;2023-04-03T10:36:21;2.70;;;1.40;;
37047;SDS011;23227;48.780;9.210;2023-04-03T10:39:30;4.93;;;1.80;;
37047;SDS011;23227;48.780;9.210;2023-04-03T10:42:38;2.47;;;1.40;;
37047;SDS011;23227;48.780;9.210;2023-04-03T10:45:49;2.43;;;1.53;;
37047;SDS011;23227;48.780;9.210;2023-04-03T10:49:00;3.50;;;1.70;;
37047;SDS011;23227;48.780;9.210;2023-04-03T10:52:17;5.97;;;1.70;;
37047;SDS011;23227;48.780;9.210;2023-04-03T10:55:24;3.30;;;1.50;;
37047;SDS011;23227;48.780;9.210;2023-04-03T10:58:35;5.10;;;1.30;;
37047;SDS011;23227;48.780;9.210;2023-04-03T11:01:43;6.10;;;1.53;;
37047;SDS011;23227;48.780;9.210;2023-04-03T11:04:48;1.83;;;1.23;;
37047;SDS011;23227;48.780;9.210;2023-04-03T11:07:53;2.33;;;1.20;;
37047;SDS011;23227;48.780;9.210;2023-04-03T11:10:59;3.60;;;1.37;;
37047;SDS011;23227;48.780;9.210;2023-04-03T11:14:03;1.90;;;1.17;;
37047;SDS011;23227;48.780;9.210;2023-04-03T11:17:19;2.23;;;1.40;;
37047;SDS011;23227;48.780;9.210;2023-04-03T11:20:26;5.50;;;1.07;;
37047;SDS011;23227;48.780;9.210;2023-04-03T11:23:35;3.00;;;1.50;;
37047;SDS011;23227;48.780;9.210;2023-04-03T11:26:50;3.13;;;1.10;;
37047;SDS011;23227;48.780;9.210;2023-04-03T11:36:33;2.60;;;1.00;;
37047;SDS011;23227;48.780;9.210;2023-04-03T11:39:45;1.87;;;1.27;;
37047;SDS011;23227;48.780;9.210;2023-04-03T11:42:52;5.00;;;1.33;;
37047;SDS011;23227;48.780;9.210;2023-04-03T11:45:56;3.27;;;1.30;;
37047;SDS011;23227;48.780;9.210;2023-04-03T11:49:03;2.90;;;1.20;;
37047;SDS011;23227;48.780;9.210;2023-04-03T11:52:08;2.33;;;1.20;;
37047;SDS011;23227;48.780;9.210;2023-04-03T11:55:45;3.63;;;1.10;;
37047;SDS011;23227;48.780;9.210;2023-04-03T12:02:36;2.30;;;1.40;;
37047;SDS011;23227;48.780;9.210;2023-04-03T12:05:44;3.97;;;1.10;;
37047;SDS011;23227;48.780;9.210;2023-04-03T12:08:47;1.20;;;1.00;;
37047;SDS011;23227;48.780;9.210;2023-04-03T12:11:53;4.60;;;1.30;;
37047;SDS011;23227;48.780;9.210;2023-04-03T12:14:55;4.65;;;1.35;;
37047;SDS011;23227;48.780;9.210;2023-04-03T12:28:51;2.23;;;1.50;;
37047;SDS011;23227;48.780;9.210;2023-04-03T12:35:04;3.93;;;1.17;;
37047;SDS011;23227;48.780;9.210;2023-04-03T12:38:23;5.20;;;1.07;;
37047;SDS011;23227;48.780;9.210;2023-04-03T12:41:45;2.77;;;1.30;;
37047;SDS011;23227;48.780;9.210;2023-04-03T12:44:55;6.03;;;1.47;;
37047;SDS011;23227;48.780;9.210;2023-04-03T12:48:00;4.80;;;1.30;;
37047;SDS011;23227;48.780;9.210;2023-04-03T12:51:05;2.30;;;1.10;;
37047;SDS011;23227;48.780;9.210;2023-04-03T12:54:14;4.93;;;1.40;;
37047;SDS011;23227;48.780;9.210;2023-04-03T12:57:21;2.83;;;1.20;;
37047;SDS011;23227;48.780;9.210;2023-04-03T13:00:28;3.23;;;1.23;;
37047;SDS011;23227;48.780;9.210;2023-04-03T13:03:33;2.47;;;1.30;;
37047;SDS011;23227;48.780;9.210;2023-04-03T13:06:38;4.10;;;1.10;;
37047;SDS011;23227;48.780;9.210;2023-04-03T13:09:43;3.57;;;1.07;;
37047;SDS011;23227;48.780;9.210;2023-04-03T13:12:46;7.20;;;1.33;;
37047;SDS011;23227;48.780;9.210;2023-04-03T13:15:51;2.47;;;1.07;;
37047;SDS011;23227;48.780;9.210;2023-04-03T13:18:55;2.27;;;1.13;;
37047;SDS011;23227;48.780;9.210;2023-04-03T13:21:59;1.92;;;0.95;;
37047;SDS011;23227;48.780;9.210;2023-04-03T13:25:07;2.73;;;1.00;;
37047;SDS011;23227;48.780;9.210;2023-04-03T13:28:11;3.03;;;1.33;;
37047;SDS011;23227;48.780;9.210;2023-04-03T13:31:18;5.23;;;1.50;;
37047;SDS011;23227;48.780;9.210;2023-04-03T13:34:22;3.67;;;1.30;;
37047;SDS011;23227;48.780;9.210;2023-04-03T13:37:28;2.80;;;1.50;;
37047;SDS011;23227;48.780;9.210;2023-04-03T13:40:35;3.43;;;1.20;;
37047;SDS011;23227;48.780;9.210;2023-04-03T13:43:49;2.20;;;1.20;;
37047;SDS011;23227;48.780;9.210;2023-04-03T13:46:58;3.67;;;1.10;;
37047;SDS011;23227;48.780;9.210;2023-04-03T13:50:03;1.90;;;1.10;;
37047;SDS011;23227;48.780;9.210;2023-04-03T13:56:21;2.00;;;1.20;;
37047;SDS011;23227;48.780;9.210;2023-04-03T13:59:28;3.73;;;1.50;;
37047;SDS011;23227;48.780;9.210;2023-04-03T14:02:32;6.20;;;1.70;;
37047;SDS011;23227;48.780;9.210;2023-04-03T14:05:35;3.80;;;1.20;;
37047;SDS011;23227;48.780;9.210;2023-04-03T14:08:38;3.38;;;1.25;;
37047;SDS011;23227;48.780;9.210;2023-04-03T14:11:45;2.07;;;1.40;;
37047;SDS011;23227;48.780;9.210;2023-04-03T14:14:48;4.93;;;1.30;;
37047;SDS011;23227;48.780;9.210;2023-04-03T14:17:51;6.03;;;1.60;;
37047;SDS011;23227;48.780;9.210;2023-04-03T14:20:54;4.65;;;1.70;;
37047;SDS011;23227;48.780;9.210;2023-04-03T14:23:57;4.50;;;2.20;;
37047;SDS011;23227;48.780;9.210;2023-04-03T14:27:00;2.27;;;1.00;;
37047;SDS011;23227;48.780;9.210;2023-04-03T14:30:04;2.70;;;1.33;;
37047;SDS011;23227;48.780;9.210;2023-04-03T14:33:09;4.00;;;1.33;;
37047;SDS011;23227;48.780;9.210;2023-04-03T14:36:13;2.07;;;1.30;;
37047;SDS011;23227;48.780;9.210;2023-04-03T14:39:17;3.90;;;1.30;;
37047;SDS011;23227;48.780;9.210;2023-04-03T14:45:25;2.70;;;1.47;;
37047;SDS011;23227;48.780;9.210;2023-04-03T14:48:28;4.20;;;1.63;;
37047;SDS011;23227;48.780;9.210;2023-04-03T14:51:32;2.07;;;1.20;;
37047;SDS011;23227;48.780;9.210;2023-04-03T14:54:35;4.78;;;1.95;;
37047;SDS011;23227;48.780;9.210;2023-04-03T14:57:39;2.00;;;1.08;;
37047;SDS011;23227;48.780;9.210;2023-04-03T15:00:42;1.80;;;1.20;;
37047;SDS011;23227;48.780;9.210;2023-04-03T15:03:45;2.90;;;1.45;;
37047;SDS011;23227;48.780;9.210;2023-04-03T15:06:48;6.00;;;1.42;;
37047;SDS011;23227;48.780;9.210;2023-04-03T15:09:52;4.83;;;1.50;;
37047;SDS011;23227;48.780;9.210;2023-04-03T15:12:58;3.73;;;1.40;;
37047;SDS011;23227;48.780;9.210;2023-04-03T15:16:01;4.83;;;1.57;;
37047;SDS011;23227;48.780;9.210;2023-04-03T15:19:05;2.90;;;1.10;;
37047;SDS011;23227;48.780;9.210;2023-04-03T15:22:09;7.05;;;1.27;;
37047;SDS011;23227;48.780;9.210;2023-04-03T15:25:16;3.07;;;1.40;;
37047;SDS011;23227;48.780;9.210;2023-04-03T15:31:24;2.70;;;1.20;;
37047;SDS011;23227;48.780;9.210;2023-04-03T15:34:27;2.10;;;1.10;;
37047;SDS011;23227;48.780;9.210;2023-04-03T15:37:30;4.47;;;1.20;;
37047;SDS011;23227;48.780;9.210;2023-04-03T15:40:33;1.52;;;1.25;;
37047;SDS011;23227;48.780;9.210;2023-04-03T15:43:37;3.30;;;1.33;;
37047;SDS011;23227;48.780;9.210;2023-04-03T15:46:40;3.57;;;1.27;;
37047;SDS011;23227;48.780;9.210;2023-04-03T15:49:42;4.77;;;1.20;;
37047;SDS011;23227;48.780;9.210;2023-04-03T15:52:45;2.83;;;1.17;;
37047;SDS011;23227;48.780;9.210;2023-04-03T15:55:48;1.40;;;0.90;;
37047;SDS011;23227;48.780;9.210;2023-04-03T15:58:52;3.53;;;1.00;;
37047;SDS011;23227;48.780;9.210;2023-04-03T16:01:54;2.73;;;1.03;;
37047;SDS011;23227;48.780;9.210;2023-04-03T16:04:58;3.80;;;1.50;;
37047;SDS011;23227;48.780;9.210;2023-04-03T16:08:01;5.90;;;1.17;;
37047;SDS011;23227;48.780;9.210;2023-04-03T16:11:04;2.25;;;1.17;;
37047;SDS011;23227;48.780;9.210;2023-04-03T16:14:08;2.33;;;1.20;;
37047;SDS011;23227;48.780;9.210;2023-04-03T16:17:11;3.37;;;1.67;;
37047;SDS011;23227;48.780;9.210;2023-04-03T16:20:13;2.10;;;1.10;;
37047;SDS011;23227;48.780;9.210;2023-04-03T16:23:17;2.92;;;1.08;;
37047;SDS011;23227;48.780;9.210;2023-04-03T16:26:20;2.65;;;1.08;;
37047;SDS011;23227;48.780;9.210;2023-04-03T16:29:24;1.57;;;1.10;;
37047;SDS011;23227;48.780;9.210;2023-04-03T16:32:27;2.93;;;1.20;;
37047;SDS011;23227;48.780;9.210;2023-04-03T16:35:31;4.47;;;1.40;;
37047;SDS011;23227;48.780;9.210;2023-04-03T16:38:34;1.77;;;1.30;;
37047;SDS011;23227;48.780;9.210;2023-04-03T16:41:37;2.55;;;1.10;;
37047;SDS011;23227;48.780;9.210;2023-04-03T16:44:41;2.83;;;1.40;;
37047;SDS011;23227;48.780;9.210;2023-04-03T16:47:44;2.00;;;1.03;;
37047;SDS011;23227;48.780;9.210;2023-04-03T16:50:46;3.10;;;1.30;;
37047;SDS011;23227;48.780;9.210;2023-04-03T16:53:51;2.37;;;1.40;;
37047;SDS011;23227;48.780;9.210;2023-04-03T16:56:54;3.30;;;1.67;;
37047;SDS011;23227;48.780;9.210;2023-04-03T16:59:58;3.35;;;1.13;;
37047;SDS011;23227;48.780;9.210;2023-04-03T17:03:01;3.13;;;1.40;;
37047;SDS011;23227;48.780;9.210;2023-04-03T17:06:03;2.90;;;1.20;;
37047;SDS011;23227;48.780;9.210;2023-04-03T17:09:06;1.85;;;1.38;;
37047;SDS011;23227;48.780;9.210;2023-04-03T17:15:14;3.53;;;1.23;;
37047;SDS011;23227;48.780;9.210;2023-04-03T17:18:16;3.20;;;1.37;;
37047;SDS011;23227;48.780;9.210;2023-04-03T17:21:19;2.90;;;1.50;;
37047;SDS011;23227;48.780;9.210;2023-04-03T17:24:22;2.28;;;1.30;;
37047;SDS011;23227;48.780;9.210;2023-04-03T17:27:25;4.55;;;1.58;;
37047;SDS011;23227;48.780;9.210;2023-04-03T17:30:29;2.27;;;1.33;;
37047;SDS011;23227;48.780;9.210;2023-04-03T17:33:31;4.67;;;1.40;;
37047;SDS011;23227;48.780;9.210;2023-04-03T17:36:34;3.75;;;1.27;;
37047;SDS011;23227;48.780;9.210;2023-04-03T17:39:37;3.63;;;1.80;;
37047;SDS011;23227;48.780;9.210;2023-04-03T17:42:40;2.45;;;1.60;;
37047;SDS011;23227;48.780;9.210;2023-04-03T17:45:44;5.77;;;1.70;;
37047;SDS011;23227;48.780;9.210;2023-04-03T17:48:47;2.00;;;1.37;;
37047;SDS011;23227;48.780;9.210;2023-04-03T17:51:50;5.22;;;1.50;;
37047;SDS011;23227;48.780;9.210;2023-04-03T17:57:56;5.40;;;1.80;;
37047;SDS011;23227;48.780;9.210;2023-04-03T18:01:00;2.27;;;1.30;;
37047;SDS011;23227;48.780;9.210;2023-04-03T18:04:09;2.97;;;2.07;;
37047;SDS011;23227;48.780;9.210;2023-04-03T18:07:11;3.63;;;1.70;;
37047;SDS011;23227;48.780;9.210;2023-04-03T18:10:14;4.97;;;1.73;;
37047;SDS011;23227;48.780;9.210;2023-04-03T18:13:17;5.55;;;1.60;;
37047;SDS011;23227;48.780;9.210;2023-04-03T18:16:21;5.97;;;2.33;;
37047;SDS011;23227;48.780;9.210;2023-04-03T18:19:24;3.77;;;1.70;;
37047;SDS011;23227;48.780;9.210;2023-04-03T18:22:30;5.77;;;1.70;;
37047;SDS011;23227;48.780;9.210;2023-04-03T18:25:33;3.83;;;1.40;;
37047;SDS011;23227;48.780;9.210;2023-04-03T18:28:35;13.73;;;1.80;;
37047;SDS011;23227;48.780;9.210;2023-04-03T18:31:40;4.70;;;1.80;;
37047;SDS011;23227;48.780;9.210;2023-04-03T18:34:45;2.97;;;1.80;;
37047;SDS011;23227;48.780;9.210;2023-04-03T18:37:47;3.57;;;1.83;;
37047;SDS011;23227;48.780;9.210;2023-04-03T18:40:50;5.63;;;1.93;;
37047;SDS011;23227;48.780;9.210;2023-04-03T18:43:53;4.18;;;1.92;;
37047;SDS011;23227;48.780;9.210;2023-04-03T18:46:58;4.10;;;2.58;;
37047;SDS011;23227;48.780;9.210;2023-04-03T18:50:01;2.83;;;1.47;;
37047;SDS011;23227;48.780;9.210;2023-04-03T18:53:05;6.10;;;1.47;;
37047;SDS011;23227;48.780;9.210;2023-04-03T18:56:07;4.83;;;2.13;;
37047;SDS011;23227;48.780;9.210;2023-04-03T18:59:10;1.73;;;1.52;;
37047;SDS011;23227;48.780;9.210;2023-04-03T19:02:14;1.73;;;1.40;;
37047;SDS011;23227;48.780;9.210;2023-04-03T19:05:18;4.57;;;2.00;;
37047;SDS011;23227;48.780;9.210;2023-04-03T19:11:24;3.73;;;1.80;;
37047;SDS011;23227;48.780;9.210;2023-04-03T19:14:30;4.33;;;1.50;;
37047;SDS011;23227;48.780;9.210;2023-04-03T19:17:34;2.40;;;1.47;;
37047;SDS011;23227;48.780;9.210;2023-04-03T19:20:37;2.60;;;1.70;;
37047;SDS011;23227;48.780;9.210;2023-04-03T19:23:39;2.33;;;1.50;;
37047;SDS011;23227;48.780;9.210;2023-04-03T19:26:44;2.57;;;1.67;;
37047;SDS011;23227;48.780;9.210;2023-04-03T19:29:47;3.43;;;1.33;;
37047;SDS011;23227;48.780;9.210;2023-04-03T19:32:51;3.72;;;1.45;;
37047;SDS011;23227;48.780;9.210;2023-04-03T19:35:54;4.30;;;1.57;;
37047;SDS011;23227;48.780;9.210;2023-04-03T19:38:57;4.20;;;1.40;;